Ada, Ghana

1:05 AM GMT on October 26, 2014 (GMT +0000)
Tokoin | Change Station
CLOSE
Current Station
Airport
Location: Lome,
Elevation: 82 ft
Nearby Weather Stations

Elev 82 ft 6.17 °N, 1.25 °E | Updated 1 hour ago

Scattered Clouds
Scattered Clouds
75 °F
Feels Like 75 °F
N
6
Wind Variable Wind from NW

Today
High -- | Low -- °F
--% Chance of Precip.
Yesterday
High -- | Low -- °F
Precip. -- in
5:43 AM 5:39 PM
Waxing Crescent, 5% visible
Pressure 29.92 in
Visibility 6.2 miles
Clouds Scattered Clouds 1000 ft
Dew Point 75 °F
Humidity 100%
Rainfall 0.00 in
Snow Depth Not available.
UV 0 out of 12
Pollen Not available.
Air Quality Not available.
Flu Activity Not available.
METAR DXXX 260000Z 32005KT 280V340 9999 SCT010 24/24 Q1013 NOSIG

More Conditions Fewer Conditions

Pressure 29.92 in
Visibility 6.2 miles
Clouds Scattered Clouds 1000 ft
Dew Point 75 °F
Humidity 100%
Rainfall 0.00 in
Snow Depth Not available.
UV 0 out of 12
Pollen Not available.
Air Quality Not available.
Flu Activity Not available.
METAR DXXX 260000Z 32005KT 280V340 9999 SCT010 24/24 Q1013 NOSIG

More Conditions Fewer Conditions

10-Day Weather Forecast

Almanac

Astronomy

Oct. 26, 2014 Rise Set
Actual Time 5:43 AM GMT 5:39 PM GMT
Civil Twilight 5:21 AM GMT 6:00 PM GMT
Nautical Twilight 4:57 AM GMT 6:25 PM GMT
Astronomical Twilight 4:32 AM GMT 6:50 PM GMT
Moon 7:48 AM GMT 7:58 PM GMT
Length of Visible Light 12h 39m
Length of Day
11h 56m
Tomorrow will be 0m 16s shorter.
Waxing Crescent, 5% of the Moon is Illuminated
Oct 25
Waxing Crescent
Oct 30
First Quarter
Nov 6
Full
Nov 14
Last Quarter
Nov 22
New

Yesterday's Extremes

Country Highs Country Lows

Community

WunderPhotos

Upload Photos

1,765,057 photos uploaded!

Nearby

Snow Depth

Not available.

Earthquake Activity

City Distance Mag. Time & Date
No recent earthquake activity has been reported nearby.
Minimum magnitude displayed is 2.5.

Coastal Water Temperatures

Place Temperature
No Stations Reporting

Nearby Weather Stations